Athboy, South Dakota
Current Conditions -  °F | °C
As of 4:53 PM on Monday 20 Oct 2014 (Local Time) from KHEI Reporting Station
Clear Clear  
Wind Chill: 71°   Ceiling: Unl
Heat Index: 71°   Visibility: 10mi
Dew Point: 39°   Wind: 12mph
Humidity: 31%   Direction: 140°SE
Pressure: 29.92"   Gusts: 21mph
Location:  45.2919°N, 102.298°W
Report Text: KHEI 202253Z AUTO 14010G18KT 10SM CLR 22/04 A2992 RMK AO2 SLP131 T02170039
Loading
Personal Weather Stations






























Interactive Weather Map
Tropical Storm Tracking
New forecast layout! Learn more

10-Day Weather Forecast

Advertisements
Track Severe Weather on mobile